Time;durP1;ratioP1;P1;durP2;ratioP2;P2;SDS_P1;SDS_P2;PMS_P1;PMS_P2;Temp;Humidity;BMP_temperature;BMP_pressure;BME280_temperature;BME280_humidity;BME280_pressure;Samples;Min_cycle;Max_cycle;Signal;HPM_P1;HPM_P2
2022/02/13 00:02:09;;;;;;;27.33;14.52;;;;;;;4.02;62.51;101543.94;4997348;28;20057;-61
2022/02/13 00:04:37;;;;;;;26.13;14.02;;;;;;;4.13;62.21;101525.84;5014835;28;20413;-60
2022/02/13 00:07:04;;;;;;;23.15;13.70;;;;;;;4.06;62.14;101523.25;5014369;28;20149;-61
2022/02/13 00:09:32;;;;;;;25.08;14.43;;;;;;;3.89;62.90;101513.50;5027682;28;20057;-59
2022/02/13 00:12:02;;;;;;;23.08;13.68;;;;;;;3.91;63.13;101517.59;5015465;28;20052;-60
2022/02/13 00:14:29;;;;;;;25.50;14.75;;;;;;;4.01;62.67;101509.56;5022576;28;20054;-60
2022/02/13 00:16:57;;;;;;;25.60;14.32;;;;;;;3.76;63.29;101498.31;5020732;28;20048;-59
2022/02/13 00:19:24;;;;;;;23.15;14.20;;;;;;;3.97;62.97;101492.09;5033877;28;20123;-60
2022/02/13 00:21:52;;;;;;;24.15;13.57;;;;;;;3.98;62.77;101492.88;5022701;28;20049;-61
2022/02/13 00:24:20;;;;;;;20.42;13.02;;;;;;;4.12;62.20;101486.00;5010035;28;20076;-63
2022/02/13 00:26:47;;;;;;;23.15;13.60;;;;;;;3.94;62.62;101489.03;5022035;28;20053;-58
2022/02/13 00:29:15;;;;;;;25.48;13.65;;;;;;;4.00;62.63;101488.00;5021154;28;20408;-60
2022/02/13 00:31:42;;;;;;;22.77;12.85;;;;;;;3.91;62.45;101486.78;5034729;28;20045;-60
2022/02/13 00:34:10;;;;;;;19.20;12.15;;;;;;;3.86;62.63;101487.56;5023536;28;20057;-61
2022/02/13 00:36:39;;;;;;;19.80;12.25;;;;;;;3.94;62.59;101489.84;5007728;28;20045;-60
2022/02/13 00:39:09;;;;;;;21.67;13.30;;;;;;;3.86;62.78;101479.38;5032385;28;20057;-59
2022/02/13 00:41:36;;;;;;;23.08;13.18;;;;;;;3.85;62.69;101469.56;5031425;28;20520;-60
2022/02/13 00:44:05;;;;;;;21.45;12.80;;;;;;;3.84;63.37;101467.91;5025558;28;20057;-58
2022/02/13 00:46:32;;;;;;;24.20;12.85;;;;;;;3.79;63.03;101458.81;5034424;28;20057;-59
2022/02/13 00:49:00;;;;;;;24.63;13.63;;;;;;;3.72;63.13;101450.00;5032701;28;20797;-60
2022/02/13 00:51:27;;;;;;;26.17;12.95;;;;;;;3.77;62.97;101452.78;5033268;28;20056;-60
2022/02/13 00:53:54;;;;;;;21.52;12.55;;;;;;;3.87;62.84;101442.06;5026505;28;20060;-59
2022/02/13 00:56:22;;;;;;;20.15;13.60;;;;;;;3.70;63.13;101439.34;5017174;28;20046;-59
2022/02/13 00:58:49;;;;;;;22.55;12.85;;;;;;;3.75;63.59;101441.34;5033606;28;20061;-59
2022/02/13 01:01:16;;;;;;;19.48;12.18;;;;;;;3.72;63.32;101439.09;5033739;28;20484;-59
2022/02/13 01:03:43;;;;;;;27.77;13.52;;;;;;;3.89;63.01;101438.00;5031104;28;20050;-57
2022/02/13 01:06:11;;;;;;;25.73;12.48;;;;;;;4.08;62.29;101425.72;5026280;28;20519;-58
2022/02/13 01:08:39;;;;;;;23.73;12.43;;;;;;;3.96;62.64;101429.63;5034419;28;20519;-56
2022/02/13 01:11:07;;;;;;;24.40;12.95;;;;;;;4.02;62.71;101420.47;5024117;28;20058;-58
2022/02/13 01:13:34;;;;;;;21.40;13.00;;;;;;;3.92;62.46;101426.63;5024455;28;20505;-58
2022/02/13 01:16:02;;;;;;;24.10;13.43;;;;;;;3.79;63.08;101418.78;5025651;28;20125;-59
2022/02/13 01:18:29;;;;;;;23.70;12.95;;;;;;;3.90;62.99;101420.59;5020537;28;20049;-58
2022/02/13 01:20:57;;;;;;;22.38;12.65;;;;;;;3.62;63.66;101423.47;5020261;28;20060;-58
2022/02/13 01:23:24;;;;;;;24.52;13.25;;;;;;;3.61;63.76;101416.34;5020063;28;20485;-59
2022/02/13 01:25:51;;;;;;;22.55;12.88;;;;;;;3.87;63.20;101414.81;5028124;28;20057;-59
2022/02/13 01:28:19;;;;;;;22.17;13.15;;;;;;;3.82;63.33;101412.81;5019297;28;20046;-58
2022/02/13 01:30:47;;;;;;;23.10;13.20;;;;;;;3.72;63.47;101403.69;5031165;28;20052;-59
2022/02/13 01:33:15;;;;;;;21.83;13.13;;;;;;;3.64;63.47;101402.25;5004165;28;20072;-58
2022/02/13 01:35:42;;;;;;;19.35;12.35;;;;;;;3.69;63.65;101406.94;5025177;28;20053;-58
2022/02/13 01:38:09;;;;;;;20.73;12.25;;;;;;;3.87;62.68;101398.47;5030341;28;20061;-56
2022/02/13 01:40:37;;;;;;;22.63;12.07;;;;;;;3.84;62.94;101399.78;5037402;28;20053;-60
2022/02/13 01:43:04;;;;;;;21.50;12.75;;;;;;;3.99;62.82;101401.88;5026937;28;20536;-59
2022/02/13 01:45:31;;;;;;;21.85;12.77;;;;;;;3.86;62.97;101405.81;5032791;28;20048;-59
2022/02/13 01:47:59;;;;;;;24.80;13.38;;;;;;;3.67;63.62;101396.28;5018837;28;20431;-62
2022/02/13 01:50:27;;;;;;;25.08;13.60;;;;;;;3.61;63.89;101399.19;5021396;28;20501;-57
2022/02/13 01:52:55;;;;;;;24.88;14.00;;;;;;;3.44;64.41;101399.22;5019237;28;20045;-58
2022/02/13 01:55:22;;;;;;;23.35;13.15;;;;;;;3.39;64.85;101399.97;5018068;28;20054;-59
2022/02/13 01:57:50;;;;;;;21.50;13.20;;;;;;;3.67;64.20;101393.56;5031195;28;20053;-57
2022/02/13 02:00:17;;;;;;;23.58;12.23;;;;;;;3.77;63.89;101393.69;5026019;28;20052;-55
2022/02/13 02:02:44;;;;;;;22.27;13.43;;;;;;;3.64;63.87;101390.50;5007069;28;20531;-56
2022/02/13 02:05:11;;;;;;;22.42;12.38;;;;;;;3.62;63.90;101396.22;5010713;28;20061;-56
2022/02/13 02:07:40;;;;;;;22.45;13.25;;;;;;;3.58;63.98;101391.50;5026181;28;20057;-57
2022/02/13 02:10:08;;;;;;;21.42;13.30;;;;;;;3.56;64.16;101382.78;5027224;28;20069;-57
2022/02/13 02:12:36;;;;;;;23.02;12.75;;;;;;;3.62;63.88;101379.88;5034125;28;20049;-57
2022/02/13 02:15:05;;;;;;;21.50;12.43;;;;;;;3.39;64.73;101377.34;5023226;28;20664;-59
2022/02/13 02:17:33;;;;;;;21.17;12.77;;;;;;;3.35;64.55;101374.31;5016422;28;20053;-58
2022/02/13 02:20:01;;;;;;;21.88;12.63;;;;;;;3.40;64.66;101368.94;5026274;28;20046;-56
2022/02/13 02:22:28;;;;;;;21.63;13.63;;;;;;;3.47;64.47;101364.13;5030802;28;20045;-53
2022/02/13 02:24:55;;;;;;;22.92;12.98;;;;;;;3.16;65.34;101358.50;5027741;28;20062;-59
2022/02/13 02:27:22;;;;;;;23.08;12.55;;;;;;;3.14;65.41;101356.03;5036637;28;20057;-57
2022/02/13 02:29:50;;;;;;;21.13;12.30;;;;;;;3.30;65.21;101351.63;5037344;28;20045;-57
2022/02/13 02:32:17;;;;;;;23.70;12.00;;;;;;;3.19;65.55;101342.47;5020741;28;20054;-58
2022/02/13 02:34:44;;;;;;;21.30;12.18;;;;;;;3.23;65.22;101337.38;5030396;28;20068;-57
2022/02/13 02:37:12;;;;;;;22.30;12.00;;;;;;;3.05;65.58;101332.22;5021449;28;20050;-58
2022/02/13 02:39:39;;;;;;;21.58;12.63;;;;;;;3.16;65.32;101320.38;5025018;28;20670;-61
2022/02/13 02:42:11;;;;;;;22.45;11.95;;;;;;;3.36;65.03;101318.78;5023073;28;20041;-61
2022/02/13 02:44:39;;;;;;;19.58;11.43;;;;;;;3.46;64.42;101318.09;5036769;28;20057;-60
2022/02/13 02:47:06;;;;;;;19.77;11.20;;;;;;;3.38;64.65;101311.19;5028382;28;20073;-60
2022/02/13 02:49:34;;;;;;;22.00;12.15;;;;;;;3.41;64.49;101307.16;5028152;28;20045;-57
2022/02/13 02:52:01;;;;;;;22.30;11.88;;;;;;;3.42;64.40;101316.94;5028222;28;20041;-57
2022/02/13 02:54:28;;;;;;;19.83;11.60;;;;;;;3.39;64.64;101301.13;5029805;28;20062;-58
2022/02/13 02:56:55;;;;;;;19.33;11.48;;;;;;;3.41;63.92;101307.97;5030937;28;20504;-59
2022/02/13 02:59:23;;;;;;;20.45;12.23;;;;;;;3.54;64.21;101303.22;5036589;28;20061;-56
2022/02/13 03:01:50;;;;;;;20.55;11.93;;;;;;;3.61;64.02;101304.66;5036510;28;20092;-58
2022/02/13 03:04:17;;;;;;;18.27;11.70;;;;;;;3.62;63.71;101303.59;5028603;28;20046;-57
2022/02/13 03:06:45;;;;;;;19.50;11.40;;;;;;;3.58;63.82;101299.75;5029780;28;20057;-58
2022/02/13 03:09:12;;;;;;;17.73;11.63;;;;;;;3.61;63.81;101296.50;5021277;28;20057;-57
2022/02/13 03:11:39;;;;;;;24.38;12.63;;;;;;;3.45;63.99;101297.41;5015653;28;20413;-55
2022/02/13 03:14:08;;;;;;;18.85;11.27;;;;;;;3.33;64.72;101296.66;5024170;28;20437;-57
2022/02/13 03:16:35;;;;;;;20.50;11.30;;;;;;;3.42;64.20;101301.44;5018926;28;20065;-58
2022/02/13 03:19:03;;;;;;;19.15;11.45;;;;;;;3.63;63.97;101286.19;5015488;28;20054;-57
2022/02/13 03:21:30;;;;;;;20.45;11.60;;;;;;;3.38;64.11;101286.69;5015539;28;20612;-56
2022/02/13 03:23:57;;;;;;;16.80;11.35;;;;;;;3.41;64.49;101282.63;5015388;28;20516;-55
2022/02/13 03:26:26;;;;;;;22.58;12.10;;;;;;;3.35;64.71;101272.75;5027908;28;20052;-56
2022/02/13 03:28:54;;;;;;;19.20;11.27;;;;;;;3.32;64.43;101260.47;5015351;28;20049;-59
2022/02/13 03:31:22;;;;;;;17.83;11.82;;;;;;;3.13;65.20;101259.13;5032713;28;20076;-59
2022/02/13 03:33:49;;;;;;;20.40;11.57;;;;;;;2.97;66.02;101257.25;5017108;28;20053;-58
2022/02/13 03:36:18;;;;;;;21.77;11.57;;;;;;;2.86;66.04;101254.66;5014653;28;20068;-58
2022/02/13 03:38:46;;;;;;;20.20;11.40;;;;;;;3.14;65.55;101252.59;5031849;28;20046;-60
2022/02/13 03:41:13;;;;;;;19.20;11.38;;;;;;;3.33;65.12;101248.50;5021257;28;20057;-59
2022/02/13 03:43:40;;;;;;;20.63;12.25;;;;;;;3.05;65.35;101251.38;5032601;28;20058;-61
2022/02/13 03:46:08;;;;;;;17.75;11.27;;;;;;;3.03;65.57;101248.06;5016771;28;20054;-59
2022/02/13 03:48:35;;;;;;;22.20;11.73;;;;;;;3.07;65.68;101245.69;5015567;28;20058;-58
2022/02/13 03:51:02;;;;;;;20.13;11.85;;;;;;;3.12;65.54;101241.13;5015133;28;20049;-59
2022/02/13 03:53:30;;;;;;;19.17;11.05;;;;;;;3.10;65.27;101228.88;5026483;28;20050;-58
2022/02/13 03:55:57;;;;;;;21.17;11.30;;;;;;;2.94;66.00;101238.72;5028338;28;20061;-60
2022/02/13 03:58:24;;;;;;;19.75;10.82;;;;;;;2.96;65.94;101236.59;5002888;28;20057;-57
2022/02/13 04:00:52;;;;;;;19.50;11.45;;;;;;;3.02;65.57;101240.16;5016593;28;20045;-57
2022/02/13 04:03:19;;;;;;;19.48;11.05;;;;;;;3.01;65.89;101242.09;5007774;28;20417;-59
2022/02/13 04:05:47;;;;;;;18.23;10.80;;;;;;;3.14;65.41;101239.00;4993227;28;1185398;-60
2022/02/13 04:08:14;;;;;;;22.05;11.38;;;;;;;3.15;65.42;101243.38;5028029;28;20637;-58
2022/02/13 04:10:41;;;;;;;18.25;11.20;;;;;;;3.05;65.68;101234.25;5029397;28;20072;-58
2022/02/13 04:13:09;;;;;;;17.10;10.88;;;;;;;3.21;65.41;101233.34;5026821;28;20057;-58
2022/02/13 04:15:36;;;;;;;20.80;12.23;;;;;;;3.07;65.70;101229.34;5029349;28;20057;-59
2022/02/13 04:18:13;;;;;;;19.27;10.68;;;;;;;3.19;65.34;101232.81;5014038;28;20049;-57
2022/02/13 04:20:41;;;;;;;19.17;10.50;;;;;;;3.07;65.79;101232.91;4997723;28;20053;-60
2022/02/13 04:23:08;;;;;;;22.85;12.65;;;;;;;3.21;65.15;101222.47;5025229;28;20064;-58
2022/02/13 04:25:37;;;;;;;18.50;10.32;;;;;;;3.08;65.75;101217.41;5021802;28;20052;-59
2022/02/13 04:28:05;;;;;;;20.02;10.88;;;;;;;3.05;65.88;101213.28;5034818;28;20064;-58
2022/02/13 04:30:32;;;;;;;18.92;10.30;;;;;;;2.97;66.18;101208.28;5017485;28;20064;-59
2022/02/13 04:33:00;;;;;;;18.08;10.48;;;;;;;3.00;66.29;101217.84;5034510;28;20049;-59
2022/02/13 04:35:28;;;;;;;17.67;10.75;;;;;;;3.03;65.88;101209.19;5021691;28;20053;-58
2022/02/13 04:37:56;;;;;;;19.40;10.00;;;;;;;3.09;65.56;101211.72;5021596;28;20049;-59
2022/02/13 04:40:24;;;;;;;19.15;10.88;;;;;;;2.80;66.23;101204.78;5032447;28;20409;-58
2022/02/13 04:42:51;;;;;;;16.65;10.30;;;;;;;2.85;66.14;101201.31;5034591;28;20061;-59
2022/02/13 04:45:19;;;;;;;19.17;9.65;;;;;;;2.89;66.04;101197.84;5034039;28;20072;-59
2022/02/13 04:47:48;;;;;;;16.95;9.77;;;;;;;2.81;66.33;101178.38;5022022;28;20522;-57
2022/02/13 04:50:21;;;;;;;17.48;10.40;;;;;;;2.91;66.38;101186.72;5021635;28;20049;-55
2022/02/13 04:52:53;;;;;;;18.73;10.07;;;;;;;2.81;66.28;101181.09;5030699;28;20053;-58
2022/02/13 04:55:21;;;;;;;21.70;10.00;;;;;;;2.70;66.73;101182.06;5033305;28;20061;-58
2022/02/13 04:57:49;;;;;;;18.77;10.23;;;;;;;2.65;66.99;101174.63;5023068;28;20049;-58
2022/02/13 05:00:18;;;;;;;18.08;10.50;;;;;;;2.72;66.96;101174.47;5034700;28;20060;-58
2022/02/13 05:02:46;;;;;;;17.80;10.32;;;;;;;2.59;67.15;101164.78;5024996;28;20050;-58
2022/02/13 05:05:13;;;;;;;19.40;10.43;;;;;;;2.62;67.35;101164.25;5012181;28;20053;-58
2022/02/13 05:07:41;;;;;;;20.40;10.57;;;;;;;2.78;66.77;101170.75;5034413;28;20048;-58
2022/02/13 05:10:08;;;;;;;19.38;10.73;;;;;;;2.63;67.17;101162.38;5031849;28;20058;-57
2022/02/13 05:12:35;;;;;;;22.20;10.65;;;;;;;2.63;67.25;101156.94;5014850;28;20038;-59
2022/02/13 05:15:03;;;;;;;16.88;9.80;;;;;;;2.72;66.79;101150.81;5031596;28;20412;-60
2022/02/13 05:17:36;;;;;;;17.35;9.50;;;;;;;2.73;66.78;101155.19;5034629;28;20049;-60
2022/02/13 05:20:06;;;;;;;17.08;9.43;;;;;;;2.68;66.90;101146.13;5016669;28;20054;-61
2022/02/13 05:22:35;;;;;;;19.67;10.30;;;;;;;2.60;67.44;101143.84;5014795;28;20046;-60
2022/02/13 05:25:02;;;;;;;15.02;9.20;;;;;;;2.61;67.23;101142.75;5015566;28;20628;-58
2022/02/13 05:27:29;;;;;;;16.92;9.68;;;;;;;2.33;67.74;101132.03;5034351;28;20053;-56
2022/02/13 05:29:56;;;;;;;17.20;9.40;;;;;;;2.62;67.55;101130.81;5011027;28;20521;-59
2022/02/13 05:32:24;;;;;;;18.17;10.07;;;;;;;2.51;67.27;101126.31;5027298;28;20057;-58
2022/02/13 05:34:51;;;;;;;16.10;9.13;;;;;;;2.45;67.85;101121.88;5020811;28;20072;-54
2022/02/13 05:37:18;;;;;;;17.00;9.02;;;;;;;2.41;68.00;101118.03;5032274;28;20058;-58
2022/02/13 05:39:45;;;;;;;18.83;9.55;;;;;;;2.29;67.83;101123.53;5028424;28;20053;-57
2022/02/13 05:42:13;;;;;;;18.27;10.55;;;;;;;2.32;68.02;101127.66;5003067;28;20057;-59
2022/02/13 05:44:41;;;;;;;20.50;9.43;;;;;;;2.46;67.71;101113.47;5015579;28;20062;-57
2022/02/13 05:47:09;;;;;;;16.17;9.13;;;;;;;2.32;67.72;101123.03;5034255;28;20049;-59
2022/02/13 05:49:36;;;;;;;16.85;9.95;;;;;;;2.20;67.92;101120.44;5032664;28;20761;-60
2022/02/13 05:52:04;;;;;;;16.80;9.70;;;;;;;2.32;67.87;101119.50;5015108;28;20050;-58
2022/02/13 05:54:31;;;;;;;21.58;10.00;;;;;;;2.79;66.64;101123.44;5009273;28;20496;-58
2022/02/13 05:56:58;;;;;;;21.00;9.60;;;;;;;2.67;66.16;101109.16;5014655;28;20057;-60
2022/02/13 05:59:25;;;;;;;17.55;9.18;;;;;;;2.61;66.30;101100.09;5029821;28;20666;-61
2022/02/13 06:01:53;;;;;;;17.73;9.05;;;;;;;2.63;66.12;101105.28;5008456;28;20057;-58
2022/02/13 06:04:21;;;;;;;17.05;9.65;;;;;;;2.67;66.08;101107.22;5030086;28;20520;-58
2022/02/13 06:06:49;;;;;;;17.08;9.30;;;;;;;2.86;65.42;101110.47;5033407;28;20050;-60
2022/02/13 06:09:18;;;;;;;13.63;8.65;;;;;;;2.97;64.88;101106.78;5017325;28;20054;-57
2022/02/13 06:11:45;;;;;;;19.42;9.70;;;;;;;2.68;65.56;101108.06;5027534;28;20041;-58
2022/02/13 06:14:13;;;;;;;16.65;9.73;;;;;;;2.66;65.87;101104.75;5023913;28;20050;-58
2022/02/13 06:16:40;;;;;;;17.52;9.82;;;;;;;2.84;65.24;101101.75;5037353;28;20060;-59
2022/02/13 06:19:08;;;;;;;19.60;9.20;;;;;;;2.79;65.17;101102.47;5018901;28;20382;-60
2022/02/13 06:21:35;;;;;;;18.77;9.30;;;;;;;2.87;65.08;101095.78;5020100;28;20056;-57
2022/02/13 06:24:03;;;;;;;16.90;9.50;;;;;;;2.68;65.29;101102.63;5019736;28;20057;-60
2022/02/13 06:26:33;;;;;;;16.17;9.35;;;;;;;2.59;65.85;101104.94;5037589;28;20064;-58
2022/02/13 06:29:02;;;;;;;13.88;8.18;;;;;;;2.81;64.98;101104.94;5032288;28;20394;-59
2022/02/13 06:31:30;;;;;;;13.07;8.40;;;;;;;2.90;64.55;101100.72;5012359;28;20049;-60
2022/02/13 06:33:57;;;;;;;16.48;8.63;;;;;;;2.85;64.09;101104.19;5017418;28;20292;-61
2022/02/13 06:36:24;;;;;;;16.65;8.98;;;;;;;2.84;64.34;101097.09;5029972;28;20056;-58
2022/02/13 06:38:51;;;;;;;16.02;9.02;;;;;;;2.95;63.79;101098.03;5031697;28;20060;-61
2022/02/13 06:41:20;;;;;;;19.92;10.15;;;;;;;2.84;63.97;101091.66;5036988;28;20436;-59
2022/02/13 06:43:47;;;;;;;17.25;8.70;;;;;;;2.97;63.80;101090.47;5005447;28;20053;-58
2022/02/13 06:46:14;;;;;;;15.63;8.85;;;;;;;2.71;64.19;101085.78;5014236;28;20052;-59
2022/02/13 06:48:42;;;;;;;14.55;8.77;;;;;;;2.43;65.06;101083.22;5018990;28;20050;-58
2022/02/13 06:51:10;;;;;;;16.55;9.20;;;;;;;2.59;65.10;101074.22;5019121;28;20049;-57
2022/02/13 06:53:37;;;;;;;15.25;8.93;;;;;;;2.66;64.66;101064.81;5034397;28;20056;-59
2022/02/13 06:56:05;;;;;;;17.77;9.35;;;;;;;2.70;64.64;101059.69;5027974;28;20052;-59
2022/02/13 06:58:32;;;;;;;16.83;9.57;;;;;;;2.71;64.43;101051.25;5021907;28;20497;-58
2022/02/13 07:01:00;;;;;;;16.92;9.38;;;;;;;2.78;64.28;101053.78;5008116;28;20512;-58
2022/02/13 07:03:28;;;;;;;16.38;8.80;;;;;;;2.60;64.38;101046.75;5023004;28;20034;-58
2022/02/13 07:05:55;;;;;;;18.75;9.75;;;;;;;2.91;63.98;101047.97;5035339;28;20468;-55
2022/02/13 07:08:22;;;;;;;15.70;8.48;;;;;;;2.86;63.35;101042.47;5020649;28;20057;-57
2022/02/13 07:10:50;;;;;;;13.43;8.00;;;;;;;2.89;63.66;101039.22;5017001;28;20046;-57
2022/02/13 07:13:17;;;;;;;14.88;8.50;;;;;;;2.90;63.46;101040.88;5019716;28;20412;-57
2022/02/13 07:15:44;;;;;;;16.48;8.98;;;;;;;2.67;64.15;101046.59;5035478;28;20532;-60
2022/02/13 07:18:12;;;;;;;15.57;8.90;;;;;;;2.67;64.12;101047.41;5023123;28;20061;-59
2022/02/13 07:20:39;;;;;;;17.88;9.27;;;;;;;2.76;64.32;101039.59;5025766;28;20053;-59
2022/02/13 07:23:07;;;;;;;19.35;8.88;;;;;;;2.73;64.22;101040.97;5029988;28;20050;-58
2022/02/13 07:25:35;;;;;;;15.30;8.30;;;;;;;2.83;63.65;101041.06;5016073;28;20065;-58
2022/02/13 07:28:58;;;;;;;17.95;8.95;;;;;;;2.81;63.93;101039.66;5011437;28;20058;-58
2022/02/13 07:30:50;;;;;;;16.90;9.15;;;;;;;2.61;64.50;101037.56;5030522;28;20057;-59
2022/02/13 07:33:17;;;;;;;16.42;8.73;;;;;;;2.70;64.20;101036.03;5028124;28;20458;-59
2022/02/13 07:35:44;;;;;;;15.63;8.25;;;;;;;2.90;63.68;101038.16;5030914;28;20053;-60
2022/02/13 07:38:12;;;;;;;18.30;9.18;;;;;;;2.84;63.61;101041.91;5014152;28;20045;-55
2022/02/13 07:40:40;;;;;;;16.30;8.52;;;;;;;2.95;63.45;101032.75;5027826;28;20049;-58
2022/02/13 07:43:07;;;;;;;17.08;8.98;;;;;;;2.85;63.45;101040.81;4999950;28;20057;-58
2022/02/13 07:45:34;;;;;;;15.20;9.05;;;;;;;3.01;63.73;101042.63;5035671;28;20054;-57
2022/02/13 07:48:02;;;;;;;14.80;8.82;;;;;;;3.06;62.88;101039.97;5020557;28;20050;-58
2022/02/13 07:50:29;;;;;;;15.35;8.18;;;;;;;3.06;63.09;101043.50;5016147;28;20057;-55
2022/02/13 07:52:56;;;;;;;14.85;10.05;;;;;;;2.94;63.33;101026.50;4984120;28;20054;-58
2022/02/13 07:55:24;;;;;;;20.92;11.55;;;;;;;2.81;63.60;101020.63;5016534;28;20045;-56
2022/02/13 07:57:51;;;;;;;15.90;8.80;;;;;;;2.80;64.09;101016.28;5030811;28;20050;-59
2022/02/13 08:00:18;;;;;;;17.05;8.88;;;;;;;2.82;63.76;101011.41;5022382;28;20046;-60
2022/02/13 08:02:45;;;;;;;17.52;9.05;;;;;;;2.75;64.26;100998.00;5035476;28;20520;-56
2022/02/13 08:05:14;;;;;;;15.63;9.55;;;;;;;2.95;63.62;100984.63;5023955;28;20054;-59
2022/02/13 08:07:46;;;;;;;23.13;8.90;;;;;;;2.82;63.71;100973.31;5030933;28;20061;-59
2022/02/13 08:10:15;;;;;;;15.63;8.60;;;;;;;2.91;63.94;100982.69;5028704;28;20058;-59
2022/02/13 08:12:42;;;;;;;14.90;9.05;;;;;;;2.92;64.45;100979.69;5020557;28;20054;-59
2022/02/13 08:15:10;;;;;;;17.80;9.90;;;;;;;3.05;63.66;100970.31;5029038;28;20064;-56
2022/02/13 08:17:37;;;;;;;15.43;8.95;;;;;;;3.28;63.12;100965.34;5020757;28;20068;-59
2022/02/13 08:20:07;;;;;;;17.17;9.00;;;;;;;3.15;63.51;100957.59;5027452;28;20056;-59
2022/02/13 08:22:35;;;;;;;16.13;9.13;;;;;;;3.09;63.80;100953.19;5027205;28;20052;-60
2022/02/13 08:25:09;;;;;;;17.83;9.25;;;;;;;3.17;64.21;100960.88;5034640;28;20053;-58
2022/02/13 08:27:36;;;;;;;16.02;9.32;;;;;;;3.32;63.55;100958.28;5018524;28;20054;-59
2022/02/13 08:30:04;;;;;;;16.67;10.13;;;;;;;3.47;63.04;100960.28;5015282;28;20058;-58
2022/02/13 08:32:31;;;;;;;19.63;10.57;;;;;;;3.54;63.19;100955.44;5028497;28;20131;-60
2022/02/13 08:35:00;;;;;;;20.42;10.65;;;;;;;3.71;63.07;100953.41;5038874;28;20045;-56
2022/02/13 08:37:27;;;;;;;18.25;10.45;;;;;;;3.75;63.04;100956.44;5028748;28;20049;-58
2022/02/13 08:39:54;;;;;;;35.25;21.52;;;;;;;3.92;62.61;100952.47;5029515;28;20053;-59
2022/02/13 08:42:22;;;;;;;17.20;10.73;;;;;;;3.76;63.11;100941.72;5017047;28;20038;-56
2022/02/13 08:44:49;;;;;;;30.00;16.98;;;;;;;3.78;63.39;100940.38;5024687;28;20062;-58
2022/02/13 08:47:16;;;;;;;26.67;13.20;;;;;;;3.91;63.25;100939.91;5020243;28;20041;-60
2022/02/13 08:49:44;;;;;;;18.40;9.75;;;;;;;4.06;62.58;100925.53;5034607;28;20042;-59
2022/02/13 08:52:12;;;;;;;22.58;12.68;;;;;;;4.14;62.48;100916.84;5021416;28;20057;-59
2022/02/13 08:54:39;;;;;;;15.90;9.40;;;;;;;3.97;62.69;100922.50;5034460;28;20053;-61
2022/02/13 08:57:06;;;;;;;18.70;9.30;;;;;;;3.87;63.74;100921.63;5033962;28;20136;-58
2022/02/13 08:59:33;;;;;;;15.50;9.15;;;;;;;3.93;63.74;100918.66;5034768;28;20057;-60
2022/02/13 09:02:01;;;;;;;21.42;11.10;;;;;;;4.08;63.53;100912.47;5024386;28;20045;-58
2022/02/13 09:04:30;;;;;;;23.95;13.77;;;;;;;4.15;63.30;100916.56;5033533;28;20508;-59
2022/02/13 09:07:00;;;;;;;16.05;10.05;;;;;;;4.26;63.46;100910.09;5027018;28;20062;-58
2022/02/13 09:09:28;;;;;;;;;;;;;;;4.50;63.05;100911.25;4998866;28;20054;-59
2022/02/13 09:11:55;;;;;;;18.95;10.80;;;;;;;4.58;62.69;100921.63;5025987;28;19921;-58
2022/02/13 09:14:22;;;;;;;22.15;11.82;;;;;;;4.58;63.04;100907.19;5007777;28;20505;-60
2022/02/13 09:16:50;;;;;;;22.92;13.10;;;;;;;4.54;63.13;100911.53;5025989;28;20054;-56
2022/02/13 09:19:19;;;;;;;16.88;9.02;;;;;;;4.68;62.71;100893.56;5008688;28;20053;-60
2022/02/13 09:21:52;;;;;;;18.38;9.45;;;;;;;4.60;62.95;100897.63;5027900;28;20057;-60
2022/02/13 09:24:21;;;;;;;18.40;9.45;;;;;;;4.63;63.03;100888.09;5028775;28;20049;-59
2022/02/13 09:26:48;;;;;;;16.70;9.98;;;;;;;4.80;62.89;100891.41;5029083;28;20815;-55
2022/02/13 09:29:18;;;;;;;15.65;9.35;;;;;;;4.76;63.43;100875.84;5016149;28;20069;-56
2022/02/13 09:31:45;;;;;;;17.45;9.90;;;;;;;4.85;63.43;100866.00;5015144;28;20049;-58
2022/02/13 09:34:18;;;;;;;17.15;9.90;;;;;;;4.72;64.00;100851.00;5028433;28;20046;-59
2022/02/13 09:36:47;;;;;;;20.23;9.98;;;;;;;4.46;65.42;100844.69;5008768;28;20054;-59
2022/02/13 09:39:14;;;;;;;20.73;10.38;;;;;;;4.70;65.30;100834.09;5016415;28;20057;-58
2022/02/13 09:41:42;;;;;;;17.92;9.43;;;;;;;5.17;64.59;100828.34;5030926;28;20080;-61
2022/02/13 09:44:10;;;;;;;16.67;9.65;;;;;;;5.26;64.83;100813.03;5012602;28;20050;-61
2022/02/13 09:46:37;;;;;;;16.42;9.80;;;;;;;5.18;65.27;100819.03;5029987;28;20057;-60
2022/02/13 09:49:07;;;;;;;17.20;10.25;;;;;;;5.33;65.40;100800.75;5037671;28;20061;-60
2022/02/13 09:51:35;;;;;;;20.88;10.45;;;;;;;5.54;64.40;100798.78;5035259;28;20049;-60
2022/02/13 09:54:05;;;;;;;19.65;9.38;;;;;;;5.35;65.61;100789.53;5036680;28;20045;-59
2022/02/13 09:56:34;;;;;;;20.33;10.38;;;;;;;5.47;65.39;100782.66;5024613;28;20536;-59
2022/02/13 09:59:03;;;;;;;19.02;10.00;;;;;;;5.56;66.05;100786.44;5037159;28;20489;-56
2022/02/13 10:01:38;;;;;;;23.00;10.40;;;;;;;5.69;65.69;100777.66;5031821;28;20083;-61
2022/02/13 10:04:06;;;;;;;16.08;9.57;;;;;;;5.82;65.21;100778.16;5032974;28;20045;-58
2022/02/13 10:06:37;;;;;;;19.70;9.85;;;;;;;6.09;64.76;100770.38;5036804;28;20065;-58
2022/02/13 10:09:06;;;;;;;19.17;9.73;;;;;;;6.25;64.47;100756.34;5037713;28;20057;-56
2022/02/13 10:11:35;;;;;;;18.90;10.13;;;;;;;6.20;64.47;100756.38;5019656;28;20092;-61
2022/02/13 10:14:07;;;;;;;26.63;11.43;;;;;;;6.30;64.22;100753.56;5037570;28;20408;-60
2022/02/13 10:16:38;;;;;;;19.70;10.23;;;;;;;6.24;65.23;100742.97;5024350;28;20053;-55
2022/02/13 10:19:15;;;;;;;26.40;12.63;;;;;;;6.37;65.46;100740.38;5037526;28;20050;-60
2022/02/13 10:22:00;;;;;;;17.88;10.57;;;;;;;6.30;65.73;100736.34;4995322;28;20061;-61
2022/02/13 10:24:33;;;;;;;21.10;11.10;;;;;;;6.30;66.14;100734.44;5014871;28;20051;-60
2022/02/13 10:27:00;;;;;;;19.17;10.43;;;;;;;6.65;65.68;100723.19;5035687;28;20053;-57
2022/02/13 10:29:30;;;;;;;18.25;9.88;;;;;;;7.04;64.65;100719.53;5017795;28;20056;-60
2022/02/13 10:32:14;;;;;;;;;;;;;;;7.07;64.96;100727.16;5009527;28;20057;-59
2022/02/13 10:35:10;;;;;;;17.02;9.68;;;;;;;7.11;65.26;100730.97;4937976;28;19932;-61
2022/02/13 10:37:43;;;;;;;19.35;9.70;;;;;;;7.33;64.74;100725.78;5029660;28;20045;-59
2022/02/13 10:40:18;;;;;;;19.40;9.88;;;;;;;7.43;64.54;100714.69;5036291;28;20124;-59
2022/02/13 10:42:46;;;;;;;16.27;9.52;;;;;;;7.33;64.86;100714.81;5029112;28;20057;-60
2022/02/13 10:45:20;;;;;;;19.02;9.32;;;;;;;7.61;64.45;100713.91;5030440;28;20048;-59
2022/02/13 10:47:49;;;;;;;18.00;8.65;;;;;;;7.68;64.71;100715.19;5027695;28;20818;-60
2022/02/13 10:50:18;;;;;;;17.90;9.63;;;;;;;7.62;65.01;100697.19;4999358;28;20046;-61
2022/02/13 10:52:47;;;;;;;19.05;9.52;;;;;;;7.60;65.53;100691.16;5017742;28;20049;-60
2022/02/13 10:55:14;;;;;;;22.58;10.25;;;;;;;7.74;65.51;100692.06;5027902;28;20041;-60
2022/02/13 10:57:42;;;;;;;20.27;9.27;;;;;;;8.00;64.96;100687.06;5014706;28;20060;-60
2022/02/13 11:00:11;;;;;;;20.17;9.73;;;;;;;8.22;64.31;100670.78;5038200;28;20045;-61
2022/02/13 11:02:39;;;;;;;21.98;10.40;;;;;;;8.17;64.90;100675.53;5025668;28;20485;-62
2022/02/13 11:05:08;;;;;;;20.00;10.15;;;;;;;8.20;64.95;100658.47;5012072;28;20046;-62
2022/02/13 11:07:39;;;;;;;16.63;9.63;;;;;;;8.34;65.26;100657.47;5025076;28;20080;-62
2022/02/13 11:10:15;;;;;;;20.40;9.45;;;;;;;8.61;64.89;100637.50;5037696;28;20049;-62
2022/02/13 11:12:43;;;;;;;22.00;9.32;;;;;;;8.71;65.16;100638.13;5026353;28;20061;-62
2022/02/13 11:15:22;;;;;;;20.17;9.40;;;;;;;8.86;65.21;100635.09;5036014;28;20050;-63
2022/02/13 11:17:54;;;;;;;15.57;8.35;;;;;;;9.00;64.69;100630.41;5023616;28;20050;-61
2022/02/13 11:20:21;;;;;;;17.95;7.75;;;;;;;9.28;64.03;100620.22;5020136;28;20413;-61
2022/02/13 11:22:53;;;;;;;15.75;9.05;;;;;;;9.41;63.84;100618.59;5035148;28;20611;-62
2022/02/13 11:26:06;;;;;;;18.80;8.10;;;;;;;9.58;63.36;100614.06;5029599;28;20053;-62
2022/02/13 11:28:44;;;;;;;22.13;8.80;;;;;;;9.77;62.67;100592.72;5019373;28;20049;-62